sensor_id;sensor_type;location;lat;lon;timestamp;P1;durP1;ratioP1;P2;durP2;ratioP2
57441;SDS011;43284;47.042;15.498;2022-08-06T00:02:24;7.80;;;6.53;;
57441;SDS011;43284;47.042;15.498;2022-08-06T00:04:52;8.07;;;6.57;;
57441;SDS011;43284;47.042;15.498;2022-08-06T00:07:21;7.78;;;6.60;;
57441;SDS011;43284;47.042;15.498;2022-08-06T00:09:48;8.48;;;6.43;;
57441;SDS011;43284;47.042;15.498;2022-08-06T00:12:15;9.35;;;6.90;;
57441;SDS011;43284;47.042;15.498;2022-08-06T00:14:43;7.88;;;6.65;;
57441;SDS011;43284;47.042;15.498;2022-08-06T00:17:10;7.97;;;6.30;;
57441;SDS011;43284;47.042;15.498;2022-08-06T00:19:48;6.85;;;5.90;;
57441;SDS011;43284;47.042;15.498;2022-08-06T00:22:16;10.15;;;6.20;;
57441;SDS011;43284;47.042;15.498;2022-08-06T00:24:43;9.98;;;7.00;;
57441;SDS011;43284;47.042;15.498;2022-08-06T00:27:10;7.65;;;6.25;;
57441;SDS011;43284;47.042;15.498;2022-08-06T00:29:37;8.35;;;6.78;;
57441;SDS011;43284;47.042;15.498;2022-08-06T00:32:04;8.57;;;6.35;;
57441;SDS011;43284;47.042;15.498;2022-08-06T00:34:32;8.45;;;6.53;;
57441;SDS011;43284;47.042;15.498;2022-08-06T00:36:59;6.75;;;6.05;;
57441;SDS011;43284;47.042;15.498;2022-08-06T00:39:27;9.18;;;7.07;;
57441;SDS011;43284;47.042;15.498;2022-08-06T00:41:55;8.23;;;6.63;;
57441;SDS011;43284;47.042;15.498;2022-08-06T00:44:22;8.60;;;6.75;;
57441;SDS011;43284;47.042;15.498;2022-08-06T00:46:49;7.80;;;6.95;;
57441;SDS011;43284;47.042;15.498;2022-08-06T00:49:17;10.35;;;6.95;;
57441;SDS011;43284;47.042;15.498;2022-08-06T00:51:45;9.80;;;7.50;;
57441;SDS011;43284;47.042;15.498;2022-08-06T00:54:13;9.35;;;6.32;;
57441;SDS011;43284;47.042;15.498;2022-08-06T00:56:40;8.35;;;6.50;;
57441;SDS011;43284;47.042;15.498;2022-08-06T00:59:07;9.55;;;6.43;;
57441;SDS011;43284;47.042;15.498;2022-08-06T01:01:35;7.43;;;6.18;;
57441;SDS011;43284;47.042;15.498;2022-08-06T01:04:02;8.35;;;6.40;;
57441;SDS011;43284;47.042;15.498;2022-08-06T01:06:30;7.88;;;6.35;;
57441;SDS011;43284;47.042;15.498;2022-08-06T01:08:57;9.13;;;6.60;;
57441;SDS011;43284;47.042;15.498;2022-08-06T01:11:25;7.15;;;5.95;;
57441;SDS011;43284;47.042;15.498;2022-08-06T01:13:52;11.13;;;6.90;;
57441;SDS011;43284;47.042;15.498;2022-08-06T01:16:25;7.75;;;6.38;;
57441;SDS011;43284;47.042;15.498;2022-08-06T01:22:11;9.77;;;6.68;;
57441;SDS011;43284;47.042;15.498;2022-08-06T01:25:03;7.35;;;6.15;;
57441;SDS011;43284;47.042;15.498;2022-08-06T01:27:38;11.15;;;6.03;;
57441;SDS011;43284;47.042;15.498;2022-08-06T01:30:08;8.45;;;6.40;;
57441;SDS011;43284;47.042;15.498;2022-08-06T01:32:49;9.07;;;7.28;;
57441;SDS011;43284;47.042;15.498;2022-08-06T01:35:34;7.00;;;5.97;;
57441;SDS011;43284;47.042;15.498;2022-08-06T01:38:08;7.18;;;6.13;;
57441;SDS011;43284;47.042;15.498;2022-08-06T01:40:45;7.43;;;6.18;;
57441;SDS011;43284;47.042;15.498;2022-08-06T01:43:17;9.07;;;7.22;;
57441;SDS011;43284;47.042;15.498;2022-08-06T01:45:47;8.15;;;6.60;;
57441;SDS011;43284;47.042;15.498;2022-08-06T01:48:19;7.68;;;6.50;;
57441;SDS011;43284;47.042;15.498;2022-08-06T01:50:51;9.90;;;6.38;;
57441;SDS011;43284;47.042;15.498;2022-08-06T01:53:28;9.38;;;6.20;;
57441;SDS011;43284;47.042;15.498;2022-08-06T01:56:00;8.40;;;6.43;;
57441;SDS011;43284;47.042;15.498;2022-08-06T01:58:33;9.32;;;6.93;;
57441;SDS011;43284;47.042;15.498;2022-08-06T02:01:10;9.25;;;6.75;;
57441;SDS011;43284;47.042;15.498;2022-08-06T02:03:45;9.43;;;7.32;;
57441;SDS011;43284;47.042;15.498;2022-08-06T02:06:18;8.57;;;7.10;;
57441;SDS011;43284;47.042;15.498;2022-08-06T02:08:49;7.95;;;6.30;;
57441;SDS011;43284;47.042;15.498;2022-08-06T02:11:20;10.70;;;6.65;;
57441;SDS011;43284;47.042;15.498;2022-08-06T02:13:49;9.88;;;6.78;;
57441;SDS011;43284;47.042;15.498;2022-08-06T02:16:21;9.65;;;7.00;;
57441;SDS011;43284;47.042;15.498;2022-08-06T02:18:52;8.55;;;6.20;;
57441;SDS011;43284;47.042;15.498;2022-08-06T02:21:23;11.10;;;7.18;;
57441;SDS011;43284;47.042;15.498;2022-08-06T02:23:52;7.63;;;6.32;;
57441;SDS011;43284;47.042;15.498;2022-08-06T02:26:23;10.32;;;6.40;;
57441;SDS011;43284;47.042;15.498;2022-08-06T02:28:53;8.95;;;6.97;;
57441;SDS011;43284;47.042;15.498;2022-08-06T02:31:24;8.13;;;6.30;;
57441;SDS011;43284;47.042;15.498;2022-08-06T02:33:51;9.00;;;6.53;;
57441;SDS011;43284;47.042;15.498;2022-08-06T02:37:02;8.90;;;6.53;;
57441;SDS011;43284;47.042;15.498;2022-08-06T02:45:00;9.52;;;6.80;;
57441;SDS011;43284;47.042;15.498;2022-08-06T02:50:09;9.25;;;6.32;;
57441;SDS011;43284;47.042;15.498;2022-08-06T02:52:41;8.15;;;6.35;;
57441;SDS011;43284;47.042;15.498;2022-08-06T02:55:12;7.55;;;6.47;;
57441;SDS011;43284;47.042;15.498;2022-08-06T02:57:49;7.32;;;6.40;;
57441;SDS011;43284;47.042;15.498;2022-08-06T03:00:21;10.02;;;7.00;;
57441;SDS011;43284;47.042;15.498;2022-08-06T03:02:51;9.07;;;7.07;;
57441;SDS011;43284;47.042;15.498;2022-08-06T03:05:23;8.13;;;6.82;;
57441;SDS011;43284;47.042;15.498;2022-08-06T03:07:54;9.13;;;7.05;;
57441;SDS011;43284;47.042;15.498;2022-08-06T03:10:23;8.68;;;6.82;;
57441;SDS011;43284;47.042;15.498;2022-08-06T03:12:52;9.43;;;7.53;;
57441;SDS011;43284;47.042;15.498;2022-08-06T03:15:21;9.98;;;7.07;;
57441;SDS011;43284;47.042;15.498;2022-08-06T03:17:50;11.68;;;7.20;;
57441;SDS011;43284;47.042;15.498;2022-08-06T03:20:25;7.97;;;6.43;;
57441;SDS011;43284;47.042;15.498;2022-08-06T03:22:55;8.52;;;6.85;;
57441;SDS011;43284;47.042;15.498;2022-08-06T03:25:26;9.23;;;7.10;;
57441;SDS011;43284;47.042;15.498;2022-08-06T03:27:56;10.07;;;7.13;;
57441;SDS011;43284;47.042;15.498;2022-08-06T03:30:25;7.82;;;6.85;;
57441;SDS011;43284;47.042;15.498;2022-08-06T03:32:53;9.13;;;7.50;;
57441;SDS011;43284;47.042;15.498;2022-08-06T03:35:26;8.13;;;6.57;;
57441;SDS011;43284;47.042;15.498;2022-08-06T03:37:54;7.72;;;6.43;;
57441;SDS011;43284;47.042;15.498;2022-08-06T03:40:23;7.93;;;6.22;;
57441;SDS011;43284;47.042;15.498;2022-08-06T03:42:52;8.48;;;6.45;;
57441;SDS011;43284;47.042;15.498;2022-08-06T03:45:19;8.18;;;6.53;;
57441;SDS011;43284;47.042;15.498;2022-08-06T03:47:48;7.80;;;6.55;;
57441;SDS011;43284;47.042;15.498;2022-08-06T03:50:28;8.32;;;6.82;;
57441;SDS011;43284;47.042;15.498;2022-08-06T03:53:03;8.80;;;6.32;;
57441;SDS011;43284;47.042;15.498;2022-08-06T03:55:52;9.27;;;7.00;;
57441;SDS011;43284;47.042;15.498;2022-08-06T03:58:22;10.02;;;6.70;;
57441;SDS011;43284;47.042;15.498;2022-08-06T04:00:54;8.60;;;6.93;;
57441;SDS011;43284;47.042;15.498;2022-08-06T04:03:28;9.25;;;7.00;;
57441;SDS011;43284;47.042;15.498;2022-08-06T04:05:57;8.63;;;6.30;;
57441;SDS011;43284;47.042;15.498;2022-08-06T04:08:26;10.07;;;5.97;;
57441;SDS011;43284;47.042;15.498;2022-08-06T04:10:54;8.55;;;6.10;;
57441;SDS011;43284;47.042;15.498;2022-08-06T04:13:24;9.88;;;5.80;;
57441;SDS011;43284;47.042;15.498;2022-08-06T04:15:53;11.27;;;5.88;;
57441;SDS011;43284;47.042;15.498;2022-08-06T04:18:25;12.10;;;5.10;;
57441;SDS011;43284;47.042;15.498;2022-08-06T04:21:04;7.85;;;5.35;;
57441;SDS011;43284;47.042;15.498;2022-08-06T04:23:35;7.95;;;5.65;;
57441;SDS011;43284;47.042;15.498;2022-08-06T04:26:06;10.23;;;5.60;;
57441;SDS011;43284;47.042;15.498;2022-08-06T04:28:35;5.32;;;4.80;;
57441;SDS011;43284;47.042;15.498;2022-08-06T04:31:07;9.93;;;4.57;;
57441;SDS011;43284;47.042;15.498;2022-08-06T04:33:42;5.50;;;4.40;;
57441;SDS011;43284;47.042;15.498;2022-08-06T04:36:10;7.72;;;4.50;;
57441;SDS011;43284;47.042;15.498;2022-08-06T04:38:38;6.53;;;4.45;;
57441;SDS011;43284;47.042;15.498;2022-08-06T04:41:07;7.57;;;3.97;;
57441;SDS011;43284;47.042;15.498;2022-08-06T04:43:35;5.53;;;4.07;;
57441;SDS011;43284;47.042;15.498;2022-08-06T04:46:03;6.13;;;4.53;;
57441;SDS011;43284;47.042;15.498;2022-08-06T04:48:31;7.20;;;4.85;;
57441;SDS011;43284;47.042;15.498;2022-08-06T04:51:01;9.90;;;4.60;;
57441;SDS011;43284;47.042;15.498;2022-08-06T04:53:39;5.97;;;4.93;;
57441;SDS011;43284;47.042;15.498;2022-08-06T04:56:08;6.50;;;4.78;;
57441;SDS011;43284;47.042;15.498;2022-08-06T04:58:36;5.03;;;4.22;;
57441;SDS011;43284;47.042;15.498;2022-08-06T05:01:07;5.25;;;3.47;;
57441;SDS011;43284;47.042;15.498;2022-08-06T05:03:34;4.63;;;3.70;;
57441;SDS011;43284;47.042;15.498;2022-08-06T05:09:11;3.70;;;2.90;;
57441;SDS011;43284;47.042;15.498;2022-08-06T05:11:54;7.93;;;3.10;;
57441;SDS011;43284;47.042;15.498;2022-08-06T05:14:37;3.92;;;3.05;;
57441;SDS011;43284;47.042;15.498;2022-08-06T05:17:15;3.88;;;3.17;;
57441;SDS011;43284;47.042;15.498;2022-08-06T05:19:51;4.60;;;3.20;;
57441;SDS011;43284;47.042;15.498;2022-08-06T05:22:26;3.05;;;2.53;;
57441;SDS011;43284;47.042;15.498;2022-08-06T05:24:55;4.43;;;2.78;;
57441;SDS011;43284;47.042;15.498;2022-08-06T05:27:22;4.18;;;2.30;;
57441;SDS011;43284;47.042;15.498;2022-08-06T05:29:50;3.33;;;2.80;;
57441;SDS011;43284;47.042;15.498;2022-08-06T05:32:19;2.90;;;2.60;;
57441;SDS011;43284;47.042;15.498;2022-08-06T05:34:47;3.75;;;2.67;;
57441;SDS011;43284;47.042;15.498;2022-08-06T05:37:15;3.60;;;2.60;;
57441;SDS011;43284;47.042;15.498;2022-08-06T05:39:42;3.75;;;2.78;;
57441;SDS011;43284;47.042;15.498;2022-08-06T05:42:09;3.03;;;2.47;;
57441;SDS011;43284;47.042;15.498;2022-08-06T05:44:36;3.10;;;2.40;;
57441;SDS011;43284;47.042;15.498;2022-08-06T05:47:05;4.60;;;2.08;;
57441;SDS011;43284;47.042;15.498;2022-08-06T05:55:25;4.68;;;2.47;;
57441;SDS011;43284;47.042;15.498;2022-08-06T05:58:11;2.50;;;1.88;;
57441;SDS011;43284;47.042;15.498;2022-08-06T06:00:44;3.90;;;2.50;;
57441;SDS011;43284;47.042;15.498;2022-08-06T06:03:14;3.13;;;2.33;;
57441;SDS011;43284;47.042;15.498;2022-08-06T06:05:43;2.35;;;2.10;;
57441;SDS011;43284;47.042;15.498;2022-08-06T06:08:10;3.25;;;2.30;;
57441;SDS011;43284;47.042;15.498;2022-08-06T06:10:38;5.10;;;2.80;;
57441;SDS011;43284;47.042;15.498;2022-08-06T06:13:06;3.53;;;2.65;;
57441;SDS011;43284;47.042;15.498;2022-08-06T06:15:38;5.22;;;2.70;;
57441;SDS011;43284;47.042;15.498;2022-08-06T06:18:42;5.25;;;2.67;;
57441;SDS011;43284;47.042;15.498;2022-08-06T06:24:08;5.20;;;2.22;;
57441;SDS011;43284;47.042;15.498;2022-08-06T06:26:54;4.20;;;1.95;;
57441;SDS011;43284;47.042;15.498;2022-08-06T06:29:47;2.58;;;1.90;;
57441;SDS011;43284;47.042;15.498;2022-08-06T06:37:42;3.58;;;2.10;;
57441;SDS011;43284;47.042;15.498;2022-08-06T06:40:39;2.72;;;2.00;;
57441;SDS011;43284;47.042;15.498;2022-08-06T06:43:10;3.33;;;2.08;;
57441;SDS011;43284;47.042;15.498;2022-08-06T06:45:48;2.50;;;2.03;;
57441;SDS011;43284;47.042;15.498;2022-08-06T06:48:48;2.00;;;1.80;;
57441;SDS011;43284;47.042;15.498;2022-08-06T06:51:40;1.90;;;1.70;;
57441;SDS011;43284;47.042;15.498;2022-08-06T06:54:19;4.90;;;2.00;;
57441;SDS011;43284;47.042;15.498;2022-08-06T06:57:01;2.13;;;1.70;;
57441;SDS011;43284;47.042;15.498;2022-08-06T06:59:34;2.13;;;1.80;;
57441;SDS011;43284;47.042;15.498;2022-08-06T07:02:04;1.38;;;1.23;;
57441;SDS011;43284;47.042;15.498;2022-08-06T07:04:34;3.88;;;1.60;;
57441;SDS011;43284;47.042;15.498;2022-08-06T07:07:06;2.08;;;1.58;;
57441;SDS011;43284;47.042;15.498;2022-08-06T07:09:35;1.90;;;1.58;;
57441;SDS011;43284;47.042;15.498;2022-08-06T07:12:03;2.53;;;2.20;;
57441;SDS011;43284;47.042;15.498;2022-08-06T07:14:32;4.63;;;2.20;;
57441;SDS011;43284;47.042;15.498;2022-08-06T07:17:03;2.58;;;2.30;;
57441;SDS011;43284;47.042;15.498;2022-08-06T07:19:33;2.92;;;2.03;;
57441;SDS011;43284;47.042;15.498;2022-08-06T07:22:02;2.40;;;2.05;;
57441;SDS011;43284;47.042;15.498;2022-08-06T07:24:31;3.20;;;2.90;;
57441;SDS011;43284;47.042;15.498;2022-08-06T07:27:00;5.57;;;3.00;;
57441;SDS011;43284;47.042;15.498;2022-08-06T07:29:29;4.55;;;2.78;;
57441;SDS011;43284;47.042;15.498;2022-08-06T07:31:57;5.53;;;3.50;;
57441;SDS011;43284;47.042;15.498;2022-08-06T07:34:26;4.03;;;2.83;;
57441;SDS011;43284;47.042;15.498;2022-08-06T07:36:54;4.07;;;3.25;;
57441;SDS011;43284;47.042;15.498;2022-08-06T07:39:25;6.30;;;3.53;;
57441;SDS011;43284;47.042;15.498;2022-08-06T07:41:59;6.07;;;3.35;;
57441;SDS011;43284;47.042;15.498;2022-08-06T07:44:34;3.85;;;3.33;;
57441;SDS011;43284;47.042;15.498;2022-08-06T07:47:04;4.82;;;3.20;;
57441;SDS011;43284;47.042;15.498;2022-08-06T07:49:35;4.05;;;3.58;;
57441;SDS011;43284;47.042;15.498;2022-08-06T07:52:12;7.28;;;3.58;;
57441;SDS011;43284;47.042;15.498;2022-08-06T07:54:41;5.82;;;3.30;;
57441;SDS011;43284;47.042;15.498;2022-08-06T07:57:09;3.58;;;3.17;;
57441;SDS011;43284;47.042;15.498;2022-08-06T07:59:37;3.15;;;2.85;;
57441;SDS011;43284;47.042;15.498;2022-08-06T08:02:06;4.00;;;2.95;;
57441;SDS011;43284;47.042;15.498;2022-08-06T08:04:36;2.67;;;2.20;;
57441;SDS011;43284;47.042;15.498;2022-08-06T08:07:24;2.75;;;2.35;;
57441;SDS011;43284;47.042;15.498;2022-08-06T08:09:54;4.80;;;3.03;;
57441;SDS011;43284;47.042;15.498;2022-08-06T08:12:22;3.35;;;2.75;;
57441;SDS011;43284;47.042;15.498;2022-08-06T08:14:51;3.13;;;2.67;;
57441;SDS011;43284;47.042;15.498;2022-08-06T08:17:20;3.83;;;3.10;;
57441;SDS011;43284;47.042;15.498;2022-08-06T08:19:48;5.45;;;3.08;;
57441;SDS011;43284;47.042;15.498;2022-08-06T08:22:15;5.03;;;3.20;;
57441;SDS011;43284;47.042;15.498;2022-08-06T08:24:45;5.18;;;3.25;;
57441;SDS011;43284;47.042;15.498;2022-08-06T08:27:14;3.83;;;3.25;;
57441;SDS011;43284;47.042;15.498;2022-08-06T08:29:42;5.85;;;3.55;;
57441;SDS011;43284;47.042;15.498;2022-08-06T08:32:09;4.85;;;3.30;;
57441;SDS011;43284;47.042;15.498;2022-08-06T08:34:36;5.53;;;3.38;;
57441;SDS011;43284;47.042;15.498;2022-08-06T08:37:04;4.40;;;3.95;;
57441;SDS011;43284;47.042;15.498;2022-08-06T08:39:31;4.18;;;3.30;;
57441;SDS011;43284;47.042;15.498;2022-08-06T08:42:08;5.60;;;3.05;;
57441;SDS011;43284;47.042;15.498;2022-08-06T08:44:41;3.83;;;3.25;;
57441;SDS011;43284;47.042;15.498;2022-08-06T08:47:10;4.03;;;3.30;;
57441;SDS011;43284;47.042;15.498;2022-08-06T08:49:41;3.95;;;2.40;;
57441;SDS011;43284;47.042;15.498;2022-08-06T08:52:28;2.00;;;1.48;;
57441;SDS011;43284;47.042;15.498;2022-08-06T08:55:01;2.55;;;1.85;;
57441;SDS011;43284;47.042;15.498;2022-08-06T08:57:31;2.38;;;1.70;;
57441;SDS011;43284;47.042;15.498;2022-08-06T09:00:00;3.83;;;2.10;;
57441;SDS011;43284;47.042;15.498;2022-08-06T09:02:29;4.57;;;1.40;;
57441;SDS011;43284;47.042;15.498;2022-08-06T09:04:57;1.70;;;1.42;;
57441;SDS011;43284;47.042;15.498;2022-08-06T09:07:27;3.33;;;1.67;;
57441;SDS011;43284;47.042;15.498;2022-08-06T09:09:56;5.47;;;1.67;;
57441;SDS011;43284;47.042;15.498;2022-08-06T09:12:26;1.70;;;1.50;;
57441;SDS011;43284;47.042;15.498;2022-08-06T09:14:54;5.47;;;1.80;;
57441;SDS011;43284;47.042;15.498;2022-08-06T09:17:22;3.30;;;1.52;;
57441;SDS011;43284;47.042;15.498;2022-08-06T09:19:52;3.22;;;2.00;;
57441;SDS011;43284;47.042;15.498;2022-08-06T09:22:27;1.83;;;1.65;;
57441;SDS011;43284;47.042;15.498;2022-08-06T09:24:55;4.72;;;1.60;;
57441;SDS011;43284;47.042;15.498;2022-08-06T09:27:22;1.70;;;1.55;;
57441;SDS011;43284;47.042;15.498;2022-08-06T09:30:00;2.22;;;1.77;;
57441;SDS011;43284;47.042;15.498;2022-08-06T09:32:37;1.60;;;1.50;;
57441;SDS011;43284;47.042;15.498;2022-08-06T09:35:18;3.35;;;1.50;;
57441;SDS011;43284;47.042;15.498;2022-08-06T09:37:48;2.45;;;1.40;;
57441;SDS011;43284;47.042;15.498;2022-08-06T09:40:26;2.72;;;1.65;;
57441;SDS011;43284;47.042;15.498;2022-08-06T09:42:53;2.35;;;1.80;;
57441;SDS011;43284;47.042;15.498;2022-08-06T09:45:22;2.25;;;1.52;;
57441;SDS011;43284;47.042;15.498;2022-08-06T09:48:04;1.70;;;1.60;;
57441;SDS011;43284;47.042;15.498;2022-08-06T09:50:37;2.05;;;1.55;;
57441;SDS011;43284;47.042;15.498;2022-08-06T09:53:06;2.30;;;1.70;;
57441;SDS011;43284;47.042;15.498;2022-08-06T09:55:35;2.50;;;1.35;;
57441;SDS011;43284;47.042;15.498;2022-08-06T09:58:06;3.38;;;1.52;;
57441;SDS011;43284;47.042;15.498;2022-08-06T10:00:34;3.55;;;1.58;;
57441;SDS011;43284;47.042;15.498;2022-08-06T10:03:13;1.60;;;1.50;;
57441;SDS011;43284;47.042;15.498;2022-08-06T10:05:41;2.65;;;1.80;;
57441;SDS011;43284;47.042;15.498;2022-08-06T10:08:13;19.83;;;4.10;;
57441;SDS011;43284;47.042;15.498;2022-08-06T10:10:46;9.55;;;3.08;;
57441;SDS011;43284;47.042;15.498;2022-08-06T10:13:23;8.88;;;2.83;;
57441;SDS011;43284;47.042;15.498;2022-08-06T10:15:54;6.03;;;2.55;;
57441;SDS011;43284;47.042;15.498;2022-08-06T10:18:35;7.70;;;2.30;;
57441;SDS011;43284;47.042;15.498;2022-08-06T10:21:11;3.40;;;2.10;;
57441;SDS011;43284;47.042;15.498;2022-08-06T10:23:48;3.17;;;1.75;;
57441;SDS011;43284;47.042;15.498;2022-08-06T10:26:22;3.38;;;2.00;;
57441;SDS011;43284;47.042;15.498;2022-08-06T10:29:03;2.22;;;2.03;;
57441;SDS011;43284;47.042;15.498;2022-08-06T10:31:32;2.90;;;2.15;;
57441;SDS011;43284;47.042;15.498;2022-08-06T10:34:10;4.20;;;2.45;;
57441;SDS011;43284;47.042;15.498;2022-08-06T10:36:52;5.57;;;2.42;;
57441;SDS011;43284;47.042;15.498;2022-08-06T10:39:30;4.10;;;2.47;;
57441;SDS011;43284;47.042;15.498;2022-08-06T10:42:04;6.57;;;2.40;;
57441;SDS011;43284;47.042;15.498;2022-08-06T10:44:33;3.60;;;2.40;;
57441;SDS011;43284;47.042;15.498;2022-08-06T10:47:02;2.70;;;2.42;;
57441;SDS011;43284;47.042;15.498;2022-08-06T10:49:31;5.22;;;2.70;;
57441;SDS011;43284;47.042;15.498;2022-08-06T10:52:00;5.32;;;2.75;;
57441;SDS011;43284;47.042;15.498;2022-08-06T10:54:27;5.07;;;2.70;;
57441;SDS011;43284;47.042;15.498;2022-08-06T10:56:57;4.75;;;2.83;;
57441;SDS011;43284;47.042;15.498;2022-08-06T10:59:25;2.95;;;2.33;;
57441;SDS011;43284;47.042;15.498;2022-08-06T11:04:52;3.72;;;2.85;;
57441;SDS011;43284;47.042;15.498;2022-08-06T11:07:42;3.72;;;2.45;;
57441;SDS011;43284;47.042;15.498;2022-08-06T11:10:58;5.35;;;2.40;;
57441;SDS011;43284;47.042;15.498;2022-08-06T11:13:16;3.05;;;2.63;;
57441;SDS011;43284;47.042;15.498;2022-08-06T11:16:02;3.33;;;2.20;;
57441;SDS011;43284;47.042;15.498;2022-08-06T11:18:30;6.03;;;2.70;;
57441;SDS011;43284;47.042;15.498;2022-08-06T11:20:58;3.90;;;2.50;;
57441;SDS011;43284;47.042;15.498;2022-08-06T11:23:28;3.47;;;2.80;;
57441;SDS011;43284;47.042;15.498;2022-08-06T11:26:01;3.55;;;2.53;;
57441;SDS011;43284;47.042;15.498;2022-08-06T11:31:01;3.10;;;2.80;;
57441;SDS011;43284;47.042;15.498;2022-08-06T11:36:01;2.83;;;2.33;;
57441;SDS011;43284;47.042;15.498;2022-08-06T11:41:29;2.95;;;2.60;;
57441;SDS011;43284;47.042;15.498;2022-08-06T11:46:27;2.72;;;2.33;;
57441;SDS011;43284;47.042;15.498;2022-08-06T11:59:38;2.70;;;1.88;;
57441;SDS011;43284;47.042;15.498;2022-08-06T12:02:11;2.08;;;1.80;;
57441;SDS011;43284;47.042;15.498;2022-08-06T12:04:40;2.40;;;2.20;;
57441;SDS011;43284;47.042;15.498;2022-08-06T12:07:16;2.38;;;1.80;;
57441;SDS011;43284;47.042;15.498;2022-08-06T12:09:43;2.55;;;2.25;;
57441;SDS011;43284;47.042;15.498;2022-08-06T12:14:53;2.40;;;2.03;;
57441;SDS011;43284;47.042;15.498;2022-08-06T12:17:22;2.17;;;1.75;;
57441;SDS011;43284;47.042;15.498;2022-08-06T12:19:52;1.75;;;1.65;;
57441;SDS011;43284;47.042;15.498;2022-08-06T12:22:27;2.00;;;1.80;;
57441;SDS011;43284;47.042;15.498;2022-08-06T12:24:56;2.63;;;2.22;;
57441;SDS011;43284;47.042;15.498;2022-08-06T12:27:32;3.95;;;2.60;;
57441;SDS011;43284;47.042;15.498;2022-08-06T12:30:03;2.78;;;2.30;;
57441;SDS011;43284;47.042;15.498;2022-08-06T12:32:32;4.13;;;2.10;;
57441;SDS011;43284;47.042;15.498;2022-08-06T12:35:02;3.42;;;2.22;;
57441;SDS011;43284;47.042;15.498;2022-08-06T12:37:36;2.58;;;2.03;;
57441;SDS011;43284;47.042;15.498;2022-08-06T12:40:06;2.35;;;1.80;;
57441;SDS011;43284;47.042;15.498;2022-08-06T12:45:32;3.22;;;2.28;;
57441;SDS011;43284;47.042;15.498;2022-08-06T12:48:04;3.50;;;2.25;;
57441;SDS011;43284;47.042;15.498;2022-08-06T12:50:34;4.05;;;1.77;;
57441;SDS011;43284;47.042;15.498;2022-08-06T12:53:04;2.75;;;2.05;;
57441;SDS011;43284;47.042;15.498;2022-08-06T12:55:49;2.67;;;1.77;;
57441;SDS011;43284;47.042;15.498;2022-08-06T12:58:25;3.45;;;2.00;;
57441;SDS011;43284;47.042;15.498;2022-08-06T13:00:54;3.22;;;1.95;;
57441;SDS011;43284;47.042;15.498;2022-08-06T13:03:24;2.35;;;1.90;;
57441;SDS011;43284;47.042;15.498;2022-08-06T13:05:56;2.22;;;1.55;;
57441;SDS011;43284;47.042;15.498;2022-08-06T13:08:27;3.05;;;1.73;;
57441;SDS011;43284;47.042;15.498;2022-08-06T13:10:56;1.95;;;1.42;;
57441;SDS011;43284;47.042;15.498;2022-08-06T13:13:39;3.63;;;2.20;;
57441;SDS011;43284;47.042;15.498;2022-08-06T13:16:09;2.20;;;1.55;;
57441;SDS011;43284;47.042;15.498;2022-08-06T13:18:38;2.50;;;2.13;;
57441;SDS011;43284;47.042;15.498;2022-08-06T13:23:50;2.28;;;1.90;;
57441;SDS011;43284;47.042;15.498;2022-08-06T13:26:19;2.35;;;1.90;;
57441;SDS011;43284;47.042;15.498;2022-08-06T13:31:45;3.38;;;1.90;;
57441;SDS011;43284;47.042;15.498;2022-08-06T13:34:16;2.70;;;1.95;;
57441;SDS011;43284;47.042;15.498;2022-08-06T13:36:44;3.40;;;1.65;;
57441;SDS011;43284;47.042;15.498;2022-08-06T13:39:25;1.92;;;1.70;;
57441;SDS011;43284;47.042;15.498;2022-08-06T13:42:05;1.33;;;1.20;;
57441;SDS011;43284;47.042;15.498;2022-08-06T13:44:35;3.42;;;1.60;;
57441;SDS011;43284;47.042;15.498;2022-08-06T13:47:13;5.40;;;1.58;;
57441;SDS011;43284;47.042;15.498;2022-08-06T13:49:52;2.13;;;1.60;;
57441;SDS011;43284;47.042;15.498;2022-08-06T13:52:20;1.80;;;1.58;;
57441;SDS011;43284;47.042;15.498;2022-08-06T13:54:48;3.05;;;1.65;;
57441;SDS011;43284;47.042;15.498;2022-08-06T13:57:17;1.52;;;1.40;;
57441;SDS011;43284;47.042;15.498;2022-08-06T13:59:46;2.00;;;1.40;;
57441;SDS011;43284;47.042;15.498;2022-08-06T14:02:13;1.50;;;1.40;;
57441;SDS011;43284;47.042;15.498;2022-08-06T14:04:47;1.52;;;1.35;;
57441;SDS011;43284;47.042;15.498;2022-08-06T14:07:18;2.75;;;1.40;;
57441;SDS011;43284;47.042;15.498;2022-08-06T14:09:45;1.52;;;1.42;;
57441;SDS011;43284;47.042;15.498;2022-08-06T14:12:12;1.27;;;1.15;;
57441;SDS011;43284;47.042;15.498;2022-08-06T14:14:40;1.98;;;1.27;;
57441;SDS011;43284;47.042;15.498;2022-08-06T14:17:07;3.35;;;1.23;;
57441;SDS011;43284;47.042;15.498;2022-08-06T14:19:38;1.38;;;1.17;;
57441;SDS011;43284;47.042;15.498;2022-08-06T14:22:07;1.30;;;1.20;;
57441;SDS011;43284;47.042;15.498;2022-08-06T14:24:38;1.27;;;1.17;;
57441;SDS011;43284;47.042;15.498;2022-08-06T14:27:06;2.17;;;1.05;;
57441;SDS011;43284;47.042;15.498;2022-08-06T14:29:34;1.27;;;1.00;;
57441;SDS011;43284;47.042;15.498;2022-08-06T14:32:05;1.05;;;1.00;;
57441;SDS011;43284;47.042;15.498;2022-08-06T14:34:33;0.90;;;0.90;;
57441;SDS011;43284;47.042;15.498;2022-08-06T14:37:04;1.00;;;0.90;;
57441;SDS011;43284;47.042;15.498;2022-08-06T14:39:32;2.83;;;1.00;;
57441;SDS011;43284;47.042;15.498;2022-08-06T14:42:00;2.05;;;1.00;;
57441;SDS011;43284;47.042;15.498;2022-08-06T14:44:45;1.58;;;1.20;;
57441;SDS011;43284;47.042;15.498;2022-08-06T14:47:24;1.10;;;1.00;;
57441;SDS011;43284;47.042;15.498;2022-08-06T14:49:52;0.82;;;0.82;;
57441;SDS011;43284;47.042;15.498;2022-08-06T14:52:22;0.88;;;0.82;;
57441;SDS011;43284;47.042;15.498;2022-08-06T14:54:49;3.85;;;1.17;;
57441;SDS011;43284;47.042;15.498;2022-08-06T14:57:19;1.58;;;1.00;;
57441;SDS011;43284;47.042;15.498;2022-08-06T14:59:49;1.42;;;0.90;;
57441;SDS011;43284;47.042;15.498;2022-08-06T15:02:27;1.13;;;0.98;;
57441;SDS011;43284;47.042;15.498;2022-08-06T15:04:58;1.73;;;1.52;;
57441;SDS011;43284;47.042;15.498;2022-08-06T15:07:26;1.40;;;0.95;;
57441;SDS011;43284;47.042;15.498;2022-08-06T15:09:56;1.13;;;1.02;;
57441;SDS011;43284;47.042;15.498;2022-08-06T15:12:24;1.33;;;1.00;;
57441;SDS011;43284;47.042;15.498;2022-08-06T15:14:52;0.85;;;0.82;;
57441;SDS011;43284;47.042;15.498;2022-08-06T15:17:20;1.20;;;0.93;;
57441;SDS011;43284;47.042;15.498;2022-08-06T15:19:47;1.20;;;1.02;;
57441;SDS011;43284;47.042;15.498;2022-08-06T15:22:17;1.13;;;0.85;;
57441;SDS011;43284;47.042;15.498;2022-08-06T15:24:44;1.23;;;1.00;;
57441;SDS011;43284;47.042;15.498;2022-08-06T15:27:11;2.10;;;1.10;;
57441;SDS011;43284;47.042;15.498;2022-08-06T15:29:46;1.05;;;0.90;;
57441;SDS011;43284;47.042;15.498;2022-08-06T15:32:14;1.10;;;0.90;;
57441;SDS011;43284;47.042;15.498;2022-08-06T15:34:42;1.20;;;0.80;;
57441;SDS011;43284;47.042;15.498;2022-08-06T15:37:09;1.58;;;1.00;;
57441;SDS011;43284;47.042;15.498;2022-08-06T15:39:36;3.53;;;1.05;;
57441;SDS011;43284;47.042;15.498;2022-08-06T15:42:03;1.30;;;1.10;;
57441;SDS011;43284;47.042;15.498;2022-08-06T15:44:30;2.90;;;1.17;;
57441;SDS011;43284;47.042;15.498;2022-08-06T15:46:57;2.70;;;1.10;;
57441;SDS011;43284;47.042;15.498;2022-08-06T15:49:25;3.47;;;1.10;;
57441;SDS011;43284;47.042;15.498;2022-08-06T15:51:52;1.80;;;0.95;;
57441;SDS011;43284;47.042;15.498;2022-08-06T15:54:19;1.52;;;1.00;;
57441;SDS011;43284;47.042;15.498;2022-08-06T15:56:47;0.95;;;0.90;;
57441;SDS011;43284;47.042;15.498;2022-08-06T15:59:15;1.38;;;1.02;;
57441;SDS011;43284;47.042;15.498;2022-08-06T16:01:42;2.30;;;1.15;;
57441;SDS011;43284;47.042;15.498;2022-08-06T16:04:09;1.17;;;1.00;;